WetterOnline ( https://www.wetteronline.de )

Wetter aktuell Diesdorf

Aktuelles Wetter: Lüchow (18m)

6-stündlich | Neueste Meldungen
Ortszeit Temperatur Wetter
Sa, 20.04. 20:00 16.5° C fast wolkenlos
Sa, 20.04. 14:00 18.4° C fast wolkenlos
Sa, 20.04. 8:00 5.1° C wolkenlos
Sa, 20.04. 2:00 6.1° C wolkenlos
Fr, 19.04. 20:00 19.1° C wolkenlos
Fr, 19.04. 14:00 21.3° C wolkenlos
Fr, 19.04. 8:00 6.6° C wolkenlos
Fr, 19.04. 2:00 8.1° C wolkenlos
Ortszeit Temperatur Wetter
Sa, 20.04. 20:30 15.6° C wolkenlos
Sa, 20.04. 20:20 15.6° C wolkenlos
Sa, 20.04. 20:10 15.2° C wolkenlos
Sa, 20.04. 20:00 16.5° C fast wolkenlos
Sa, 20.04. 19:50 16.5° C fast wolkenlos
Sa, 20.04. 19:40 16.8° C leicht bewölkt
Sa, 20.04. 19:30 17.3° C wolkig
Sa, 20.04. 19:00 18.4° C leicht bewölkt
Sa, 20.04. 18:30 19.1° C wolkenlos
Sa, 20.04. 18:00 19.7° C wolkenlos
Sa, 20.04. 17:30 19.8° C wolkenlos
Sa, 20.04. 17:00 19.8° C wolkenlos
Ortszeit Relative Feuchte Sichtweite
Sa, 20.04. 20:00 37% 40 km
Sa, 20.04. 14:00 29% 12 km
Sa, 20.04. 8:00 68% 21 km
Sa, 20.04. 2:00 64% 50 km
Fr, 19.04. 20:00 33% 35 km
Fr, 19.04. 14:00 25% 11 km
Fr, 19.04. 8:00 75% 19 km
Fr, 19.04. 2:00 64% 30 km
Ortszeit Relative Feuchte Sichtweite
Sa, 20.04. 20:30 39% 55 km
Sa, 20.04. 20:20 39% -
Sa, 20.04. 20:10 41% -
Sa, 20.04. 20:00 37% 40 km
Sa, 20.04. 19:50 37% -
Sa, 20.04. 19:40 38% -
Sa, 20.04. 19:30 36% 35 km
Sa, 20.04. 19:00 30% 35 km
Sa, 20.04. 18:30 27% 40 km
Sa, 20.04. 18:00 23% 35 km
Sa, 20.04. 17:30 30% 23 km
Sa, 20.04. 17:00 31% 21 km
Ortszeit Niederschlagsmenge Niederschlagsart
Sa, 20.04. 20:00 0.0 l/m2 in 12 Std. -
Sa, 20.04. 14:00 0.0 l/m2 in 6 Std. -
Sa, 20.04. 8:00 0.0 l/m2 in 12 Std. -
Sa, 20.04. 2:00 0.0 l/m2 in 6 Std. -
Fr, 19.04. 20:00 0.0 l/m2 in 12 Std. -
Fr, 19.04. 14:00 0.0 l/m2 in 6 Std. -
Fr, 19.04. 8:00 0.0 l/m2 in 12 Std. -
Fr, 19.04. 2:00 0.0 l/m2 in 6 Std. -
Ortszeit Niederschlagsmenge Niederschlagsart
Sa, 20.04. 20:30 0.0 l/m2 in 1 Std. -
Sa, 20.04. 20:20 keine Meldung -
Sa, 20.04. 20:10 keine Meldung -
Sa, 20.04. 20:00 0.0 l/m2 in 1 Std. -
Sa, 20.04. 19:50 keine Meldung -
Sa, 20.04. 19:40 keine Meldung -
Sa, 20.04. 19:30 0.0 l/m2 in 1 Std. -
Sa, 20.04. 19:00 0.0 l/m2 in 1 Std. -
Sa, 20.04. 18:30 0.0 l/m2 in 1 Std. -
Sa, 20.04. 18:00 0.0 l/m2 in 1 Std. -
Sa, 20.04. 17:30 0.0 l/m2 in 1 Std. -
Sa, 20.04. 17:00 0.0 l/m2 in 1 Std. -
Ortszeit Stärke Spitze Richtung
km/h Bft. km/h Grad Sektor
Sa, 20.04. 20:00 11 2 24 50° NO
Sa, 20.04. 14:00 13 3 26 30° NO
Sa, 20.04. 8:00 9 2 13 20° N
Sa, 20.04. 2:00 4 1 25 30° NO
Fr, 19.04. 20:00 13 3 28 70° O
Fr, 19.04. 14:00 15 3 30 100° O
Fr, 19.04. 8:00 9 2 11 20° N
Fr, 19.04. 2:00 7 2 25 20° N
Ortszeit Stärke Spitze Richtung
km/h Bft. km/h Grad Sektor
Sa, 20.04. 20:30 7 2 14 50° NO
Sa, 20.04. 20:20 7 2 - 50° NO
Sa, 20.04. 20:10 9 2 - 50° NO
Sa, 20.04. 20:00 11 2 19 50° NO
Sa, 20.04. 19:50 11 2 - 50° NO
Sa, 20.04. 19:40 11 2 - 40° NO
Sa, 20.04. 19:30 11 2 18 40° NO
Sa, 20.04. 19:00 11 2 25 40° NO
Sa, 20.04. 18:30 13 3 24 60° NO
Sa, 20.04. 18:00 14 3 25 60° NO
Sa, 20.04. 17:30 11 2 22 60° NO
Sa, 20.04. 17:00 13 3 22 60° NO
Ortszeit Untergrenze Bedeckung Gattung
total tief tief mittel hoch
Sa, 20.04. 20:00 10500 m 2/8 0/8 - - -
Sa, 20.04. 14:00 7800 m 1/8 0/8 - - -
Sa, 20.04. 8:00 - 0/8 0/8 - - -
Sa, 20.04. 2:00 - 0/8 0/8 - - -
Fr, 19.04. 20:00 - 0/8 0/8 - - -
Fr, 19.04. 14:00 - 0/8 0/8 - - -
Fr, 19.04. 8:00 - 0/8 0/8 - - -
Fr, 19.04. 2:00 - 0/8 0/8 - - -
Ortszeit Bedeckungsgrad in Achtel und Wolkenuntergrenze
Sa, 20.04. 20:30 keine Wolken
Sa, 20.04. 20:20 keine Wolken
Sa, 20.04. 20:10 keine Wolken
Sa, 20.04. 20:00 2(10500m)
Sa, 20.04. 19:50 2(10500m)
Sa, 20.04. 19:40 4(10500m)
Sa, 20.04. 19:30 8(10500m)
Sa, 20.04. 19:00 7(10500m)
Sa, 20.04. 18:30 3(10500m)
Sa, 20.04. 18:00 keine Wolken
Sa, 20.04. 17:30 keine Wolken
Sa, 20.04. 17:00 keine Wolken
Ortszeit Luftdruck NN (hPa) Tendenz (hPa in 3 Std.)
Sa, 20.04. 20:00 1029 - 0,9
Sa, 20.04. 14:00 1032 - 1,3
Sa, 20.04. 8:00 1033 + 0,1
Sa, 20.04. 2:00 1033 + 0,2
Fr, 19.04. 20:00 1032 - 0,1
Fr, 19.04. 14:00 1033 - 1,1
Fr, 19.04. 8:00 1034 + 1,0
Fr, 19.04. 2:00 1032 + 0,7
Ortszeit Luftdruck NN (hPa) Tendenz (hPa in 3 Std.)
Sa, 20.04. 20:30 1029 - 0,7
Sa, 20.04. 20:20 1029 keine Meldung
Sa, 20.04. 20:10 1029 keine Meldung
Sa, 20.04. 20:00 1029 - 0,9
Sa, 20.04. 19:50 1029 keine Meldung
Sa, 20.04. 19:40 1029 keine Meldung
Sa, 20.04. 19:30 1029 - 1,1
Sa, 20.04. 19:00 1029 - 1,3
Sa, 20.04. 18:30 1029 - 1,4
Sa, 20.04. 18:00 1029 - 1,6
Sa, 20.04. 17:30 1029 - 1,8
Sa, 20.04. 17:00 1030 - 2,0
Ortszeit Schneehöhe (cm)
Sa, 20.04. 20:00 0
Sa, 20.04. 14:00 0
Sa, 20.04. 8:00 0
Sa, 20.04. 2:00 0
Fr, 19.04. 20:00 0
Fr, 19.04. 14:00 0
Fr, 19.04. 8:00 0
Fr, 19.04. 2:00 0
Ortszeit Schneehöhe (cm)
Sa, 20.04. 20:30 0
Sa, 20.04. 20:20 0
Sa, 20.04. 20:10 0
Sa, 20.04. 20:00 0
Sa, 20.04. 19:50 0
Sa, 20.04. 19:40 0
Sa, 20.04. 19:30 0
Sa, 20.04. 19:00 0
Sa, 20.04. 18:30 0
Sa, 20.04. 18:00 0
Sa, 20.04. 17:30 0
Sa, 20.04. 17:00 0
Link zu dieser Seite / Seite empfehlen

Das Wetter in ...